createdAt,value
2019-05-16T00:00:22.954Z,100.00
2019-05-16T00:02:51.754Z,100.00
2019-05-16T00:05:20.867Z,100.00
2019-05-16T00:07:49.534Z,100.00
2019-05-16T00:10:18.690Z,100.00
2019-05-16T00:12:48.694Z,100.00
2019-05-16T00:15:18.322Z,100.00
2019-05-16T00:17:48.859Z,100.00
2019-05-16T00:20:19.027Z,100.00
2019-05-16T00:22:48.553Z,100.00
2019-05-16T00:25:17.914Z,100.00
2019-05-16T00:27:47.912Z,100.00
2019-05-16T00:30:18.212Z,100.00
2019-05-16T00:32:48.135Z,100.00
2019-05-16T00:35:18.207Z,100.00
2019-05-16T00:37:48.332Z,100.00
2019-05-16T00:40:18.814Z,100.00
2019-05-16T00:42:49.186Z,100.00
2019-05-16T00:45:18.844Z,100.00
2019-05-16T00:47:48.092Z,100.00
2019-05-16T00:50:18.303Z,100.00
2019-05-16T00:52:48.795Z,100.00
2019-05-16T00:55:18.118Z,100.00
2019-05-16T00:57:48.395Z,100.00
2019-05-16T01:00:20.212Z,100.00
2019-05-16T01:02:48.989Z,100.00
2019-05-16T01:05:19.249Z,100.00
2019-05-16T01:07:48.258Z,100.00
2019-05-16T01:10:18.359Z,100.00
2019-05-16T01:12:48.040Z,100.00
2019-05-16T01:15:18.333Z,100.00
2019-05-16T01:17:48.380Z,100.00
2019-05-16T01:20:19.205Z,100.00
2019-05-16T01:22:49.026Z,100.00
2019-05-16T01:25:19.541Z,100.00
2019-05-16T01:27:48.463Z,100.00
2019-05-16T01:30:18.668Z,100.00
2019-05-16T01:32:49.248Z,100.00
2019-05-16T01:35:18.851Z,100.00
2019-05-16T01:37:48.787Z,100.00
2019-05-16T01:40:18.925Z,100.00
2019-05-16T01:42:49.008Z,100.00
2019-05-16T01:45:18.934Z,100.00
2019-05-16T01:47:48.339Z,100.00
2019-05-16T01:50:18.065Z,100.00
2019-05-16T01:52:48.666Z,100.00
2019-05-16T01:55:18.723Z,100.00
2019-05-16T01:57:48.072Z,100.00
2019-05-16T02:00:24.918Z,100.00
2019-05-16T02:02:49.111Z,100.00
2019-05-16T02:05:18.808Z,100.00
2019-05-16T02:07:48.119Z,100.00
2019-05-16T02:10:18.548Z,100.00
2019-05-16T02:12:49.027Z,100.00
2019-05-16T02:15:19.309Z,100.00
2019-05-16T02:17:48.538Z,100.00
2019-05-16T02:20:18.131Z,100.00
2019-05-16T02:22:48.239Z,100.00
2019-05-16T02:25:18.587Z,100.00
2019-05-16T02:27:48.817Z,100.00
2019-05-16T02:30:21.351Z,100.00
2019-05-16T02:32:51.902Z,100.00
2019-05-16T02:35:21.007Z,100.00
2019-05-16T02:37:51.755Z,100.00
2019-05-16T02:40:26.037Z,100.00
2019-05-16T02:42:56.338Z,100.00
2019-05-16T02:45:25.457Z,100.00
2019-05-16T02:47:54.146Z,100.00
2019-05-16T02:50:22.846Z,100.00
2019-05-16T02:52:52.013Z,100.00
2019-05-16T02:55:21.606Z,100.00
2019-05-16T02:57:51.003Z,100.00
2019-05-16T03:00:22.946Z,100.00
2019-05-16T03:02:51.997Z,100.00
2019-05-16T03:05:21.020Z,100.00
2019-05-16T03:07:52.194Z,100.00
2019-05-16T03:10:20.535Z,100.00
2019-05-16T03:12:51.326Z,100.00
2019-05-16T03:15:21.768Z,100.00
2019-05-16T03:17:51.387Z,100.00
2019-05-16T03:20:21.192Z,100.00
2019-05-16T03:22:53.570Z,100.00
2019-05-16T03:25:24.890Z,100.00
2019-05-16T03:27:53.612Z,100.00
2019-05-16T03:30:23.850Z,100.00
2019-05-16T03:32:54.855Z,100.00
2019-05-16T03:35:25.181Z,100.00
2019-05-16T03:37:59.694Z,100.00
2019-05-16T03:40:25.600Z,100.00
2019-05-16T03:42:54.430Z,100.00
2019-05-16T03:45:23.451Z,100.00
2019-05-16T03:47:52.112Z,100.00
2019-05-16T03:50:21.852Z,100.00
2019-05-16T03:52:51.108Z,100.00
2019-05-16T03:55:21.321Z,100.00
2019-05-16T03:57:51.612Z,100.00
2019-05-16T04:00:23.532Z,100.00
2019-05-16T04:02:53.927Z,100.00
2019-05-16T04:05:22.647Z,100.00
2019-05-16T04:07:56.768Z,100.00
2019-05-16T04:10:21.835Z,100.00
2019-05-16T04:12:51.337Z,100.00
2019-05-16T04:15:21.448Z,100.00
2019-05-16T04:17:51.333Z,100.00
2019-05-16T04:20:21.463Z,100.00
2019-05-16T04:22:51.272Z,100.00
2019-05-16T04:25:21.633Z,100.00
2019-05-16T04:27:50.666Z,100.00
2019-05-16T04:30:22.049Z,100.00
2019-05-16T04:32:51.022Z,100.00
2019-05-16T04:35:21.580Z,100.00
2019-05-16T04:37:51.267Z,100.00
2019-05-16T04:40:21.960Z,100.00
2019-05-16T04:42:51.531Z,100.00
2019-05-16T04:45:21.102Z,100.00
2019-05-16T04:47:51.240Z,100.00
2019-05-16T04:50:21.647Z,100.00
2019-05-16T04:52:51.826Z,100.00
2019-05-16T04:55:21.382Z,100.00
2019-05-16T04:57:51.142Z,100.00
2019-05-16T05:00:21.198Z,100.00
2019-05-16T05:02:51.864Z,100.00
2019-05-16T05:05:21.674Z,100.00
2019-05-16T05:07:51.126Z,100.00
2019-05-16T05:10:20.646Z,100.00
2019-05-16T05:12:51.491Z,100.00
2019-05-16T05:15:21.261Z,100.00
2019-05-16T05:17:50.613Z,100.00
2019-05-16T05:20:20.991Z,100.00
2019-05-16T05:22:50.062Z,100.00
2019-05-16T05:25:20.380Z,100.00
2019-05-16T05:27:50.078Z,100.00
2019-05-16T05:30:19.786Z,100.00
2019-05-16T05:32:50.258Z,100.00
2019-05-16T05:35:20.682Z,100.00
2019-05-16T05:37:50.751Z,100.00
2019-05-16T05:40:20.173Z,100.00
2019-05-16T05:42:50.496Z,100.00
2019-05-16T05:45:20.141Z,100.00
2019-05-16T05:47:50.515Z,100.00
2019-05-16T05:50:20.205Z,100.00
2019-05-16T05:52:51.306Z,100.00
2019-05-16T05:55:20.206Z,100.00
2019-05-16T05:57:50.700Z,100.00
2019-05-16T06:00:21.145Z,100.00
2019-05-16T06:02:50.986Z,100.00
2019-05-16T06:05:20.311Z,100.00
2019-05-16T06:07:51.006Z,100.00
2019-05-16T06:10:20.079Z,100.00
2019-05-16T06:12:50.026Z,100.00
2019-05-16T06:15:20.249Z,100.00
2019-05-16T06:17:50.849Z,100.00
2019-05-16T06:20:20.337Z,100.00
2019-05-16T06:22:50.933Z,100.00
2019-05-16T06:25:22.721Z,100.00
2019-05-16T06:27:51.137Z,100.00
2019-05-16T06:30:21.319Z,100.00
2019-05-16T06:32:50.412Z,100.00
2019-05-16T06:35:20.582Z,100.00
2019-05-16T06:37:50.116Z,100.00
2019-05-16T06:40:20.333Z,100.00
2019-05-16T06:42:50.978Z,100.00
2019-05-16T06:45:20.495Z,100.00
2019-05-16T06:47:50.410Z,100.00
2019-05-16T06:50:20.841Z,100.00
2019-05-16T06:52:50.273Z,100.00
2019-05-16T06:55:20.521Z,100.00
2019-05-16T06:57:50.295Z,100.00
2019-05-16T07:00:21.005Z,100.00
2019-05-16T07:02:50.201Z,100.00
2019-05-16T07:05:20.775Z,100.00
2019-05-16T07:07:50.955Z,100.00
2019-05-16T07:10:22.117Z,100.00
2019-05-16T07:12:50.733Z,100.00
2019-05-16T07:15:20.688Z,100.00
2019-05-16T07:17:50.642Z,100.00
2019-05-16T07:20:21.070Z,100.00
2019-05-16T07:22:50.454Z,100.00
2019-05-16T07:25:20.861Z,100.00
2019-05-16T07:27:51.047Z,100.00
2019-05-16T07:30:20.240Z,100.00
2019-05-16T07:32:49.973Z,100.00
2019-05-16T07:35:20.421Z,100.00
2019-05-16T07:37:49.961Z,100.00
2019-05-16T07:40:26.416Z,100.00
2019-05-16T07:42:51.003Z,100.00
2019-05-16T07:45:20.535Z,100.00
2019-05-16T07:47:50.945Z,100.00
2019-05-16T07:50:20.319Z,100.00
2019-05-16T07:52:51.162Z,100.00
2019-05-16T07:55:20.935Z,100.00
2019-05-16T07:57:50.645Z,100.00
2019-05-16T08:00:21.591Z,100.00
2019-05-16T08:02:50.630Z,100.00
2019-05-16T08:05:21.101Z,100.00
2019-05-16T08:07:51.216Z,100.00
2019-05-16T08:10:36.933Z,100.00
2019-05-16T08:12:51.418Z,100.00
2019-05-16T08:15:21.445Z,100.00
2019-05-16T08:17:51.234Z,100.00
2019-05-16T08:20:21.283Z,100.00
2019-05-16T08:22:51.179Z,100.00
2019-05-16T08:25:20.532Z,100.00
2019-05-16T08:30:21.035Z,100.00
2019-05-16T08:32:52.895Z,100.00
2019-05-16T08:35:21.279Z,100.00
2019-05-16T08:40:21.672Z,100.00
2019-05-16T08:45:21.446Z,100.00
2019-05-16T08:47:52.594Z,100.00
2019-05-16T08:50:21.715Z,100.00
2019-05-16T08:52:52.705Z,100.00
2019-05-16T08:55:21.986Z,100.00
2019-05-16T08:57:52.806Z,100.00
2019-05-16T09:00:23.666Z,100.00
2019-05-16T09:02:52.795Z,100.00
2019-05-16T09:05:22.823Z,100.00
2019-05-16T09:08:00.372Z,100.00
2019-05-16T09:10:11.001Z,100.00
2019-05-16T09:10:31.319Z,100.00
2019-05-16T09:10:34.643Z,100.00
2019-05-16T09:12:53.359Z,100.00
2019-05-16T09:15:23.075Z,100.00
2019-05-16T09:17:51.646Z,100.00
2019-05-16T09:20:20.420Z,100.00
2019-05-16T09:22:49.085Z,100.00
2019-05-16T09:25:18.690Z,100.00
2019-05-16T09:27:47.471Z,100.00
2019-05-16T09:30:17.314Z,100.00
2019-05-16T09:32:48.546Z,100.00
2019-05-16T09:35:17.485Z,100.00
2019-05-16T09:37:47.344Z,100.00
2019-05-16T09:40:17.353Z,100.00
2019-05-16T09:42:47.435Z,100.00
2019-05-16T09:45:17.202Z,100.00
2019-05-16T09:47:48.580Z,99.06
2019-05-16T09:50:17.515Z,100.00
2019-05-16T09:52:47.184Z,100.00
2019-05-16T09:55:17.696Z,100.00
2019-05-16T09:57:46.987Z,100.00
2019-05-16T10:00:21.443Z,100.00
2019-05-16T10:02:51.360Z,100.00
2019-05-16T10:05:20.697Z,87.65
2019-05-16T10:07:49.491Z,90.33
2019-05-16T10:10:18.207Z,87.48
2019-05-16T10:12:46.892Z,91.44
2019-05-16T10:15:17.604Z,90.57
2019-05-16T10:17:47.592Z,92.75
2019-05-16T10:20:17.635Z,99.38
2019-05-16T10:22:50.443Z,100.00
2019-05-16T10:25:19.374Z,100.00
2019-05-16T10:27:47.679Z,94.22
2019-05-16T10:30:18.291Z,95.30
2019-05-16T10:32:47.827Z,95.88
2019-05-16T10:35:17.303Z,100.00
2019-05-16T10:37:47.060Z,95.40
2019-05-16T10:40:18.309Z,97.24
2019-05-16T10:42:47.470Z,89.74
2019-05-16T10:45:16.772Z,96.29
2019-05-16T10:47:48.087Z,97.05
2019-05-16T10:50:16.854Z,91.51
2019-05-16T10:52:48.912Z,86.58
2019-05-16T10:55:17.879Z,93.72
2019-05-16T10:57:47.766Z,90.94
2019-05-16T11:00:39.916Z,88.81
2019-05-16T11:02:47.702Z,89.71
2019-05-16T11:05:28.910Z,86.44
2019-05-16T11:07:48.577Z,98.99
2019-05-16T11:10:17.379Z,87.85
2019-05-16T11:12:51.876Z,89.95
2019-05-16T11:15:17.388Z,91.58
2019-05-16T11:17:46.172Z,81.44
2019-05-16T11:20:19.573Z,83.91
2019-05-16T11:22:47.726Z,85.36
2019-05-16T11:25:24.668Z,84.28
2019-05-16T11:27:46.926Z,82.59
2019-05-16T11:30:18.017Z,84.67
2019-05-16T11:32:47.362Z,80.92
2019-05-16T11:35:17.181Z,87.98
2019-05-16T11:37:47.342Z,85.66
2019-05-16T11:40:18.022Z,93.31
2019-05-16T11:42:51.923Z,91.04
2019-05-16T11:45:17.336Z,87.85
2019-05-16T11:47:47.123Z,87.84
2019-05-16T11:50:17.584Z,89.26
2019-05-16T11:52:47.834Z,83.65
2019-05-16T11:55:18.441Z,89.29
2019-05-16T11:57:47.738Z,80.87
2019-05-16T12:00:18.204Z,83.08
2019-05-16T12:02:47.828Z,87.77
2019-05-16T12:05:17.350Z,82.07
2019-05-16T12:07:48.408Z,88.48
2019-05-16T12:10:16.733Z,85.28
2019-05-16T12:12:45.414Z,88.53
2019-05-16T12:15:17.527Z,87.63
2019-05-16T12:17:59.068Z,85.36
2019-05-16T12:20:16.686Z,91.02
2019-05-16T12:22:45.771Z,84.44
2019-05-16T12:25:16.767Z,84.35
2019-05-16T12:27:47.894Z,86.41
2019-05-16T12:30:17.694Z,85.93
2019-05-16T12:32:47.009Z,83.83
2019-05-16T12:35:17.560Z,83.87
2019-05-16T12:37:47.980Z,88.64
2019-05-16T12:40:18.025Z,84.48
2019-05-16T12:42:47.295Z,84.17
2019-05-16T12:45:16.403Z,83.78
2019-05-16T12:47:47.332Z,83.26
2019-05-16T12:50:17.783Z,85.85
2019-05-16T12:52:47.369Z,86.90
2019-05-16T12:55:16.749Z,88.84
2019-05-16T12:57:48.536Z,84.19
2019-05-16T13:00:18.725Z,82.16
2019-05-16T13:02:47.337Z,82.86
2019-05-16T13:05:17.845Z,82.99
2019-05-16T13:07:47.717Z,85.47
2019-05-16T13:10:17.374Z,76.29
2019-05-16T13:12:46.213Z,82.22
2019-05-16T13:15:18.275Z,86.11
2019-05-16T13:17:47.898Z,82.51
2019-05-16T13:20:17.297Z,87.10
2019-05-16T13:22:47.404Z,85.96
2019-05-16T13:25:18.365Z,85.34
2019-05-16T13:27:47.629Z,86.31
2019-05-16T13:30:17.994Z,87.35
2019-05-16T13:32:46.690Z,84.83
2019-05-16T13:35:16.939Z,79.16
2019-05-16T13:37:47.753Z,87.46
2019-05-16T13:40:17.123Z,79.22
2019-05-16T13:42:48.130Z,79.65
2019-05-16T13:45:17.846Z,83.03
2019-05-16T13:47:49.840Z,83.92
2019-05-16T13:50:18.480Z,85.00
2019-05-16T13:52:48.066Z,84.64
2019-05-16T13:55:18.647Z,88.20
2019-05-16T13:57:47.893Z,88.50
2019-05-16T14:00:20.559Z,90.51
2019-05-16T14:02:49.437Z,91.07
2019-05-16T14:05:21.426Z,92.49
2019-05-16T14:07:51.984Z,92.91
2019-05-16T14:10:20.874Z,85.48
2019-05-16T14:12:50.435Z,91.11
2019-05-16T14:15:19.504Z,89.68
2019-05-16T14:17:49.004Z,91.68
2019-05-16T14:20:19.596Z,94.78
2019-05-16T14:22:51.168Z,94.19
2019-05-16T14:25:19.859Z,97.27
2019-05-16T14:27:48.590Z,88.86
2019-05-16T14:30:18.866Z,92.20
2019-05-16T14:32:50.712Z,94.00
2019-05-16T14:35:18.385Z,94.91
2019-05-16T14:37:48.723Z,100.00
2019-05-16T14:40:17.932Z,100.00
2019-05-16T14:42:48.002Z,94.34
2019-05-16T14:45:19.842Z,96.56
2019-05-16T14:47:49.066Z,100.00
2019-05-16T14:50:18.510Z,96.58
2019-05-16T14:52:47.559Z,93.92
2019-05-16T14:55:18.865Z,92.88
2019-05-16T14:57:47.672Z,95.50
2019-05-16T15:00:20.072Z,98.76
2019-05-16T15:02:48.530Z,96.95
2019-05-16T15:05:17.245Z,93.96
2019-05-16T15:07:48.108Z,100.00
2019-05-16T15:10:19.244Z,99.76
2019-05-16T15:12:47.629Z,100.00
2019-05-16T15:15:23.508Z,100.00
2019-05-16T15:17:56.786Z,100.00
2019-05-16T15:20:27.863Z,94.46
2019-05-16T15:22:56.821Z,96.43
2019-05-16T15:25:26.594Z,97.62
2019-05-16T15:27:57.608Z,92.87
2019-05-16T15:30:27.201Z,92.19
2019-05-16T15:32:57.016Z,100.00
2019-05-16T15:35:27.401Z,100.00
2019-05-16T15:37:58.935Z,100.00
2019-05-16T15:40:26.985Z,100.00
2019-05-16T15:42:58.839Z,100.00
2019-05-16T15:45:43.479Z,100.00
2019-05-16T15:48:11.952Z,100.00
2019-05-16T15:50:42.673Z,100.00
2019-05-16T15:53:14.681Z,100.00
2019-05-16T15:55:48.543Z,100.00
2019-05-16T15:58:19.065Z,100.00
2019-05-16T16:00:49.335Z,100.00
2019-05-16T16:03:18.196Z,100.00
2019-05-16T16:05:51.172Z,100.00
2019-05-16T16:08:23.972Z,100.00
2019-05-16T16:10:52.979Z,100.00
2019-05-16T16:13:26.969Z,100.00
2019-05-16T16:15:58.916Z,100.00
2019-05-16T16:18:27.476Z,100.00
2019-05-16T16:20:58.027Z,100.00
2019-05-16T16:23:27.420Z,97.30
2019-05-16T16:25:59.757Z,100.00
2019-05-16T16:28:29.328Z,100.00
2019-05-16T16:30:58.114Z,100.00
2019-05-16T16:33:30.166Z,100.00
2019-05-16T16:35:59.163Z,100.00
2019-05-16T16:38:27.852Z,100.00
2019-05-16T16:40:57.402Z,100.00
2019-05-16T16:43:26.601Z,100.00
2019-05-16T16:46:06.130Z,100.00
2019-05-16T16:48:26.635Z,100.00
2019-05-16T16:50:57.455Z,100.00
2019-05-16T16:53:27.052Z,100.00
2019-05-16T16:55:56.869Z,100.00
2019-05-16T16:58:26.662Z,100.00
2019-05-16T17:00:55.918Z,100.00
2019-05-16T17:03:27.253Z,100.00
2019-05-16T17:05:57.187Z,100.00
2019-05-16T17:08:27.451Z,100.00
2019-05-16T17:10:57.469Z,100.00
2019-05-16T17:13:29.946Z,100.00
2019-05-16T17:15:58.719Z,100.00
2019-05-16T17:18:27.727Z,100.00
2019-05-16T17:20:59.082Z,100.00
2019-05-16T17:23:28.594Z,100.00
2019-05-16T17:25:59.073Z,100.00
2019-05-16T17:28:37.083Z,100.00
2019-05-16T17:31:06.702Z,100.00
2019-05-16T17:33:38.286Z,100.00
2019-05-16T17:36:09.131Z,100.00
2019-05-16T17:38:41.870Z,100.00
2019-05-16T17:41:11.631Z,100.00
2019-05-16T17:43:43.366Z,100.00
2019-05-16T17:46:15.625Z,100.00
2019-05-16T17:48:46.806Z,100.00
2019-05-16T17:51:16.888Z,100.00
2019-05-16T17:53:47.786Z,100.00
2019-05-16T17:56:17.256Z,100.00
2019-05-16T17:58:46.334Z,100.00
2019-05-16T18:01:17.136Z,100.00
2019-05-16T18:03:46.113Z,100.00
2019-05-16T18:06:17.034Z,100.00
2019-05-16T18:08:46.842Z,100.00
2019-05-16T18:11:17.777Z,100.00
2019-05-16T18:13:47.973Z,100.00
2019-05-16T18:16:18.388Z,100.00
2019-05-16T18:18:47.289Z,100.00
2019-05-16T18:21:17.819Z,100.00
2019-05-16T18:23:48.038Z,100.00
2019-05-16T18:26:17.377Z,100.00
2019-05-16T18:28:47.362Z,100.00
2019-05-16T18:31:17.372Z,100.00
2019-05-16T18:33:49.121Z,100.00
2019-05-16T18:36:18.148Z,100.00
2019-05-16T18:38:49.842Z,100.00
2019-05-16T18:41:20.510Z,100.00
2019-05-16T18:43:49.317Z,100.00
2019-05-16T18:46:17.963Z,100.00
2019-05-16T18:48:47.252Z,100.00
2019-05-16T18:51:16.161Z,100.00
2019-05-16T18:53:46.531Z,100.00
2019-05-16T18:56:16.860Z,100.00
2019-05-16T18:58:46.671Z,100.00
2019-05-16T19:01:17.674Z,100.00
2019-05-16T19:03:46.469Z,100.00
2019-05-16T19:06:17.130Z,100.00
2019-05-16T19:08:47.694Z,100.00
2019-05-16T19:11:17.647Z,100.00
2019-05-16T19:13:47.466Z,100.00
2019-05-16T19:16:17.068Z,100.00
2019-05-16T19:18:46.913Z,100.00
2019-05-16T19:21:16.962Z,100.00
2019-05-16T19:23:46.097Z,100.00
2019-05-16T19:26:16.940Z,100.00
2019-05-16T19:28:46.681Z,100.00
2019-05-16T19:31:17.166Z,100.00
2019-05-16T19:33:48.526Z,100.00
2019-05-16T19:36:16.762Z,100.00
2019-05-16T19:38:47.126Z,100.00
2019-05-16T19:41:15.814Z,100.00
2019-05-16T19:43:46.508Z,100.00
2019-05-16T19:46:14.909Z,100.00
2019-05-16T19:48:43.912Z,100.00
2019-05-16T19:51:12.843Z,100.00
2019-05-16T19:53:41.663Z,100.00
2019-05-16T19:56:12.440Z,100.00
2019-05-16T19:58:41.383Z,100.00
2019-05-16T20:01:11.107Z,100.00
2019-05-16T20:03:39.949Z,100.00
2019-05-16T20:06:10.239Z,100.00
2019-05-16T20:08:39.612Z,100.00
2019-05-16T20:11:08.295Z,100.00
2019-05-16T20:13:37.113Z,100.00
2019-05-16T20:16:07.382Z,100.00
2019-05-16T20:18:37.373Z,100.00
2019-05-16T20:21:06.303Z,100.00
2019-05-16T20:23:37.013Z,100.00
2019-05-16T20:26:07.594Z,100.00
2019-05-16T20:28:37.029Z,100.00
2019-05-16T20:31:07.987Z,100.00
2019-05-16T20:33:37.607Z,100.00
2019-05-16T20:36:09.524Z,100.00
2019-05-16T20:38:37.234Z,100.00
2019-05-16T20:41:07.819Z,100.00
2019-05-16T20:43:36.884Z,100.00
2019-05-16T20:46:07.300Z,100.00
2019-05-16T20:48:36.896Z,100.00
2019-05-16T20:51:07.257Z,100.00
2019-05-16T20:53:37.496Z,100.00
2019-05-16T20:56:06.724Z,100.00
2019-05-16T20:58:38.461Z,100.00
2019-05-16T21:01:07.241Z,100.00
2019-05-16T21:03:37.816Z,100.00
2019-05-16T21:06:08.367Z,100.00
2019-05-16T21:08:37.255Z,100.00
2019-05-16T21:11:06.514Z,100.00
2019-05-16T21:13:35.666Z,100.00
2019-05-16T21:16:04.346Z,100.00
2019-05-16T21:18:33.055Z,100.00
2019-05-16T21:21:03.313Z,100.00
2019-05-16T21:23:36.442Z,100.00
2019-05-16T21:26:04.565Z,100.00
2019-05-16T21:28:33.215Z,100.00
2019-05-16T21:31:01.927Z,100.00
2019-05-16T21:33:30.867Z,100.00
2019-05-16T21:35:59.549Z,100.00
2019-05-16T21:38:28.234Z,100.00
2019-05-16T21:40:58.410Z,100.00
2019-05-16T21:43:27.368Z,100.00
2019-05-16T21:45:56.680Z,100.00
2019-05-16T21:48:27.687Z,100.00
2019-05-16T21:50:57.019Z,100.00
2019-05-16T21:53:29.668Z,100.00
2019-05-16T21:55:56.549Z,100.00
2019-05-16T21:58:26.698Z,100.00
2019-05-16T22:00:57.177Z,100.00
2019-05-16T22:03:26.949Z,100.00
2019-05-16T22:05:57.680Z,100.00
2019-05-16T22:08:26.481Z,100.00
2019-05-16T22:10:57.308Z,100.00
2019-05-16T22:13:26.276Z,100.00
2019-05-16T22:15:56.959Z,100.00
2019-05-16T22:18:25.366Z,100.00
2019-05-16T22:20:56.898Z,100.00
2019-05-16T22:23:26.916Z,100.00
2019-05-16T22:25:56.929Z,100.00
2019-05-16T22:28:27.541Z,100.00
2019-05-16T22:30:58.325Z,100.00
2019-05-16T22:33:26.812Z,100.00
2019-05-16T22:35:57.691Z,100.00
2019-05-16T22:38:26.322Z,100.00
2019-05-16T22:40:55.156Z,100.00
2019-05-16T22:43:23.756Z,100.00
2019-05-16T22:45:52.446Z,100.00
2019-05-16T22:48:21.053Z,100.00
2019-05-16T22:50:49.733Z,100.00
2019-05-16T22:53:19.294Z,100.00
2019-05-16T22:55:47.949Z,100.00
2019-05-16T22:58:16.640Z,100.00
2019-05-16T23:00:45.281Z,100.00
2019-05-16T23:03:13.897Z,100.00
2019-05-16T23:05:43.724Z,100.00
2019-05-16T23:08:12.366Z,100.00
2019-05-16T23:10:41.081Z,100.00
2019-05-16T23:13:09.755Z,100.00
2019-05-16T23:15:38.496Z,100.00
2019-05-16T23:18:07.210Z,100.00
2019-05-16T23:20:36.961Z,100.00
2019-05-16T23:23:07.220Z,100.00
2019-05-16T23:25:37.062Z,100.00
2019-05-16T23:28:07.924Z,100.00
2019-05-16T23:30:36.829Z,100.00
2019-05-16T23:33:07.215Z,100.00
2019-05-16T23:35:37.522Z,100.00
2019-05-16T23:38:19.059Z,100.00
2019-05-16T23:40:37.556Z,100.00
2019-05-16T23:43:07.527Z,100.00
2019-05-16T23:45:37.617Z,100.00
2019-05-16T23:48:10.244Z,100.00
2019-05-16T23:50:37.013Z,100.00
2019-05-16T23:53:07.438Z,100.00
2019-05-16T23:55:37.253Z,100.00
2019-05-16T23:58:07.002Z,100.00
